Weather at Barton Siding Airport

Public forecast

Using degrees Celsius for public forecast. Weather courtesy of forecast.io.

Closest aviation weather report (METAR) to Barton Siding Airport

Closest report is Ceduna Airport, 110.4 nm (204.5 km) SSE. Retrieved 2021/06/13 10:00 UTC (54 minutes ago):

YCDU 131000Z AUTO 15002KT 9999 // BKN096 OVC115 11/07 Q1010

Closest aviation forecast (TAF) to Barton Siding Airport

Closest forecast is Woomera Airfield, 217.5 nm (402.8 km) E. Retrieved 2021/06/13 06:00 UTC (5 hours ago):

TAF YPWR 130525Z 1306/1400 02014KT 9999 -SHRA FEW050 FM131500 01007KT 9999 -SHRA FEW050